sensor_id;sensor_type;location;lat;lon;timestamp;temperature;humidity
42715;DHT22;28351;51.480;5.706;2023-03-23T00:01:13;12.00;99.90
42715;DHT22;28351;51.480;5.706;2023-03-23T00:03:40;12.00;99.90
42715;DHT22;28351;51.480;5.706;2023-03-23T00:06:07;12.10;99.90
42715;DHT22;28351;51.480;5.706;2023-03-23T00:08:53;12.10;99.90
42715;DHT22;28351;51.480;5.706;2023-03-23T00:11:28;12.00;99.90
42715;DHT22;28351;51.480;5.706;2023-03-23T00:13:56;12.00;99.90
42715;DHT22;28351;51.480;5.706;2023-03-23T00:16:24;12.10;99.90
42715;DHT22;28351;51.480;5.706;2023-03-23T00:19:08;12.20;99.90
42715;DHT22;28351;51.480;5.706;2023-03-23T00:21:36;12.20;99.90
42715;DHT22;28351;51.480;5.706;2023-03-23T00:24:13;12.20;99.90
42715;DHT22;28351;51.480;5.706;2023-03-23T00:26:42;12.20;99.90
42715;DHT22;28351;51.480;5.706;2023-03-23T00:31:39;12.30;99.90
42715;DHT22;28351;51.480;5.706;2023-03-23T00:34:05;12.30;99.90
42715;DHT22;28351;51.480;5.706;2023-03-23T00:36:32;12.30;99.90
42715;DHT22;28351;51.480;5.706;2023-03-23T00:39:03;12.30;99.90
42715;DHT22;28351;51.480;5.706;2023-03-23T00:41:29;12.30;99.90
42715;DHT22;28351;51.480;5.706;2023-03-23T00:43:57;12.30;99.90
42715;DHT22;28351;51.480;5.706;2023-03-23T00:46:24;12.30;99.90
42715;DHT22;28351;51.480;5.706;2023-03-23T00:48:50;12.30;99.90
42715;DHT22;28351;51.480;5.706;2023-03-23T00:51:18;12.30;99.90
42715;DHT22;28351;51.480;5.706;2023-03-23T00:53:44;12.30;99.90
42715;DHT22;28351;51.480;5.706;2023-03-23T00:56:13;12.30;99.90
42715;DHT22;28351;51.480;5.706;2023-03-23T00:58:38;12.30;99.90
42715;DHT22;28351;51.480;5.706;2023-03-23T01:01:06;12.40;99.90
42715;DHT22;28351;51.480;5.706;2023-03-23T01:03:35;12.40;99.90
42715;DHT22;28351;51.480;5.706;2023-03-23T01:06:06;12.40;99.90
42715;DHT22;28351;51.480;5.706;2023-03-23T01:08:34;12.50;99.90
42715;DHT22;28351;51.480;5.706;2023-03-23T01:11:06;12.50;99.90
42715;DHT22;28351;51.480;5.706;2023-03-23T01:13:31;12.50;99.90
42715;DHT22;28351;51.480;5.706;2023-03-23T01:15:57;12.50;99.90
42715;DHT22;28351;51.480;5.706;2023-03-23T01:18:23;12.50;99.90
42715;DHT22;28351;51.480;5.706;2023-03-23T01:20:48;12.50;99.90
42715;DHT22;28351;51.480;5.706;2023-03-23T01:23:14;12.50;99.90
42715;DHT22;28351;51.480;5.706;2023-03-23T01:25:39;12.50;99.90
42715;DHT22;28351;51.480;5.706;2023-03-23T01:28:05;12.50;99.90
42715;DHT22;28351;51.480;5.706;2023-03-23T01:30:31;12.30;99.90
42715;DHT22;28351;51.480;5.706;2023-03-23T01:32:57;12.30;99.90
42715;DHT22;28351;51.480;5.706;2023-03-23T01:35:22;12.30;99.90
42715;DHT22;28351;51.480;5.706;2023-03-23T01:37:48;12.30;99.90
42715;DHT22;28351;51.480;5.706;2023-03-23T01:40:14;12.30;99.90
42715;DHT22;28351;51.480;5.706;2023-03-23T01:42:40;12.30;99.90
42715;DHT22;28351;51.480;5.706;2023-03-23T01:45:28;12.30;99.90
42715;DHT22;28351;51.480;5.706;2023-03-23T01:50:50;12.30;99.90
42715;DHT22;28351;51.480;5.706;2023-03-23T01:53:17;12.40;99.90
42715;DHT22;28351;51.480;5.706;2023-03-23T01:55:44;12.30;99.90
42715;DHT22;28351;51.480;5.706;2023-03-23T01:58:14;12.30;99.90
42715;DHT22;28351;51.480;5.706;2023-03-23T02:00:40;12.30;99.90
42715;DHT22;28351;51.480;5.706;2023-03-23T02:03:07;12.30;99.90
42715;DHT22;28351;51.480;5.706;2023-03-23T02:05:38;12.40;99.90
42715;DHT22;28351;51.480;5.706;2023-03-23T02:08:05;12.40;99.90
42715;DHT22;28351;51.480;5.706;2023-03-23T02:10:32;12.30;99.90
42715;DHT22;28351;51.480;5.706;2023-03-23T02:13:01;12.40;99.90
42715;DHT22;28351;51.480;5.706;2023-03-23T02:15:54;12.40;99.90
42715;DHT22;28351;51.480;5.706;2023-03-23T02:18:46;12.40;99.90
42715;DHT22;28351;51.480;5.706;2023-03-23T02:27:07;12.40;99.90
42715;DHT22;28351;51.480;5.706;2023-03-23T02:32:04;12.30;99.90
42715;DHT22;28351;51.480;5.706;2023-03-23T02:34:42;12.40;99.90
42715;DHT22;28351;51.480;5.706;2023-03-23T02:37:16;12.40;99.90
42715;DHT22;28351;51.480;5.706;2023-03-23T02:40:24;12.40;99.90
42715;DHT22;28351;51.480;5.706;2023-03-23T02:42:50;12.50;99.90
42715;DHT22;28351;51.480;5.706;2023-03-23T02:45:18;12.50;99.90
42715;DHT22;28351;51.480;5.706;2023-03-23T02:47:48;12.50;99.90
42715;DHT22;28351;51.480;5.706;2023-03-23T02:50:16;12.60;99.90
42715;DHT22;28351;51.480;5.706;2023-03-23T02:52:45;12.60;99.90
42715;DHT22;28351;51.480;5.706;2023-03-23T02:55:12;12.60;99.90
42715;DHT22;28351;51.480;5.706;2023-03-23T02:57:39;12.60;99.90
42715;DHT22;28351;51.480;5.706;2023-03-23T03:00:07;12.60;99.90
42715;DHT22;28351;51.480;5.706;2023-03-23T03:02:42;12.60;99.90
42715;DHT22;28351;51.480;5.706;2023-03-23T03:05:44;12.60;99.90
42715;DHT22;28351;51.480;5.706;2023-03-23T03:10:57;12.60;99.90
42715;DHT22;28351;51.480;5.706;2023-03-23T03:13:31;12.60;99.90
42715;DHT22;28351;51.480;5.706;2023-03-23T03:16:12;12.60;99.90
42715;DHT22;28351;51.480;5.706;2023-03-23T03:18:46;12.60;99.90
42715;DHT22;28351;51.480;5.706;2023-03-23T03:21:15;12.60;99.90
42715;DHT22;28351;51.480;5.706;2023-03-23T03:23:47;12.60;99.90
42715;DHT22;28351;51.480;5.706;2023-03-23T03:26:15;12.60;99.90
42715;DHT22;28351;51.480;5.706;2023-03-23T03:28:44;12.60;99.90
42715;DHT22;28351;51.480;5.706;2023-03-23T03:31:14;12.60;99.90
42715;DHT22;28351;51.480;5.706;2023-03-23T03:33:41;12.60;99.90
42715;DHT22;28351;51.480;5.706;2023-03-23T03:36:07;12.60;99.90
42715;DHT22;28351;51.480;5.706;2023-03-23T03:38:44;12.60;99.90
42715;DHT22;28351;51.480;5.706;2023-03-23T03:41:10;12.60;99.90
42715;DHT22;28351;51.480;5.706;2023-03-23T03:43:36;12.50;99.90
42715;DHT22;28351;51.480;5.706;2023-03-23T03:46:02;12.50;99.90
42715;DHT22;28351;51.480;5.706;2023-03-23T03:48:27;12.60;99.90
42715;DHT22;28351;51.480;5.706;2023-03-23T03:50:53;12.60;99.90
42715;DHT22;28351;51.480;5.706;2023-03-23T03:53:22;12.60;99.90
42715;DHT22;28351;51.480;5.706;2023-03-23T03:55:51;12.70;99.90
42715;DHT22;28351;51.480;5.706;2023-03-23T03:58:23;12.60;99.90
42715;DHT22;28351;51.480;5.706;2023-03-23T04:00:50;12.70;99.90
42715;DHT22;28351;51.480;5.706;2023-03-23T04:03:16;12.60;99.90
42715;DHT22;28351;51.480;5.706;2023-03-23T04:05:48;12.60;99.90
42715;DHT22;28351;51.480;5.706;2023-03-23T04:08:14;12.60;99.90
42715;DHT22;28351;51.480;5.706;2023-03-23T04:10:39;12.60;99.90
42715;DHT22;28351;51.480;5.706;2023-03-23T04:13:05;12.60;99.90
42715;DHT22;28351;51.480;5.706;2023-03-23T04:15:31;12.70;99.90
42715;DHT22;28351;51.480;5.706;2023-03-23T04:17:57;12.70;99.90
42715;DHT22;28351;51.480;5.706;2023-03-23T04:20:23;12.70;99.90
42715;DHT22;28351;51.480;5.706;2023-03-23T04:22:50;12.70;99.90
42715;DHT22;28351;51.480;5.706;2023-03-23T04:25:19;12.70;99.90
42715;DHT22;28351;51.480;5.706;2023-03-23T04:27:48;12.70;99.90
42715;DHT22;28351;51.480;5.706;2023-03-23T04:30:22;12.70;99.90
42715;DHT22;28351;51.480;5.706;2023-03-23T04:32:49;12.70;99.90
42715;DHT22;28351;51.480;5.706;2023-03-23T04:35:22;12.70;99.90
42715;DHT22;28351;51.480;5.706;2023-03-23T04:37:48;12.70;99.90
42715;DHT22;28351;51.480;5.706;2023-03-23T04:40:19;12.70;99.90
42715;DHT22;28351;51.480;5.706;2023-03-23T04:42:45;12.70;99.90
42715;DHT22;28351;51.480;5.706;2023-03-23T04:45:15;12.70;99.90
42715;DHT22;28351;51.480;5.706;2023-03-23T04:47:41;12.70;99.90
42715;DHT22;28351;51.480;5.706;2023-03-23T04:50:12;12.60;99.90
42715;DHT22;28351;51.480;5.706;2023-03-23T04:52:39;12.60;99.90
42715;DHT22;28351;51.480;5.706;2023-03-23T04:55:07;12.60;99.90
42715;DHT22;28351;51.480;5.706;2023-03-23T04:57:36;12.60;99.90
42715;DHT22;28351;51.480;5.706;2023-03-23T05:00:02;12.50;99.90
42715;DHT22;28351;51.480;5.706;2023-03-23T05:02:39;12.50;99.90
42715;DHT22;28351;51.480;5.706;2023-03-23T05:05:13;12.50;99.90
42715;DHT22;28351;51.480;5.706;2023-03-23T05:07:39;12.50;99.90
42715;DHT22;28351;51.480;5.706;2023-03-23T05:10:06;12.50;99.90
42715;DHT22;28351;51.480;5.706;2023-03-23T05:12:33;12.50;99.90
42715;DHT22;28351;51.480;5.706;2023-03-23T05:14:59;12.40;99.90
42715;DHT22;28351;51.480;5.706;2023-03-23T05:17:25;12.50;99.90
42715;DHT22;28351;51.480;5.706;2023-03-23T05:19:51;12.50;99.90
42715;DHT22;28351;51.480;5.706;2023-03-23T05:22:17;12.50;99.90
42715;DHT22;28351;51.480;5.706;2023-03-23T05:24:43;12.50;99.90
42715;DHT22;28351;51.480;5.706;2023-03-23T05:27:09;12.60;99.90
42715;DHT22;28351;51.480;5.706;2023-03-23T05:29:36;12.60;99.90
42715;DHT22;28351;51.480;5.706;2023-03-23T05:32:05;12.60;99.90
42715;DHT22;28351;51.480;5.706;2023-03-23T05:34:39;12.60;99.90
42715;DHT22;28351;51.480;5.706;2023-03-23T05:37:04;12.50;99.90
42715;DHT22;28351;51.480;5.706;2023-03-23T05:39:30;12.30;99.90
42715;DHT22;28351;51.480;5.706;2023-03-23T05:41:58;11.90;99.90
42715;DHT22;28351;51.480;5.706;2023-03-23T05:44:23;11.70;99.90
42715;DHT22;28351;51.480;5.706;2023-03-23T05:46:49;11.60;99.90
42715;DHT22;28351;51.480;5.706;2023-03-23T05:49:15;11.50;99.90
42715;DHT22;28351;51.480;5.706;2023-03-23T05:51:44;11.40;99.90
42715;DHT22;28351;51.480;5.706;2023-03-23T05:54:11;11.40;99.90
42715;DHT22;28351;51.480;5.706;2023-03-23T05:56:37;11.30;99.90
42715;DHT22;28351;51.480;5.706;2023-03-23T05:59:03;11.30;99.90
42715;DHT22;28351;51.480;5.706;2023-03-23T06:01:29;11.30;99.90
42715;DHT22;28351;51.480;5.706;2023-03-23T06:03:55;11.40;99.90
42715;DHT22;28351;51.480;5.706;2023-03-23T06:06:24;11.40;99.90
42715;DHT22;28351;51.480;5.706;2023-03-23T06:08:50;11.50;99.90
42715;DHT22;28351;51.480;5.706;2023-03-23T06:11:16;11.60;99.90
42715;DHT22;28351;51.480;5.706;2023-03-23T06:13:43;11.60;99.90
42715;DHT22;28351;51.480;5.706;2023-03-23T06:16:09;11.70;99.90
42715;DHT22;28351;51.480;5.706;2023-03-23T06:18:35;11.80;99.90
42715;DHT22;28351;51.480;5.706;2023-03-23T06:21:03;11.80;99.90
42715;DHT22;28351;51.480;5.706;2023-03-23T06:23:29;11.80;99.90
42715;DHT22;28351;51.480;5.706;2023-03-23T06:25:57;11.80;99.90
42715;DHT22;28351;51.480;5.706;2023-03-23T06:28:24;11.90;99.90
42715;DHT22;28351;51.480;5.706;2023-03-23T06:30:49;11.90;99.90
42715;DHT22;28351;51.480;5.706;2023-03-23T06:33:16;11.90;99.90
42715;DHT22;28351;51.480;5.706;2023-03-23T06:35:42;11.90;99.90
42715;DHT22;28351;51.480;5.706;2023-03-23T06:38:08;12.00;99.90
42715;DHT22;28351;51.480;5.706;2023-03-23T06:40:34;12.00;99.90
42715;DHT22;28351;51.480;5.706;2023-03-23T06:43:02;12.10;99.90
42715;DHT22;28351;51.480;5.706;2023-03-23T06:45:29;12.10;99.90
42715;DHT22;28351;51.480;5.706;2023-03-23T06:47:55;12.20;99.90
42715;DHT22;28351;51.480;5.706;2023-03-23T06:50:23;12.20;99.90
42715;DHT22;28351;51.480;5.706;2023-03-23T06:52:52;12.30;99.90
42715;DHT22;28351;51.480;5.706;2023-03-23T06:55:18;12.30;99.90
42715;DHT22;28351;51.480;5.706;2023-03-23T06:57:44;12.30;99.90
42715;DHT22;28351;51.480;5.706;2023-03-23T07:00:11;12.30;99.90
42715;DHT22;28351;51.480;5.706;2023-03-23T07:02:40;12.40;99.90
42715;DHT22;28351;51.480;5.706;2023-03-23T07:05:10;12.40;99.90
42715;DHT22;28351;51.480;5.706;2023-03-23T07:07:37;12.40;99.90
42715;DHT22;28351;51.480;5.706;2023-03-23T07:10:04;12.40;99.90
42715;DHT22;28351;51.480;5.706;2023-03-23T07:12:31;12.30;99.90
42715;DHT22;28351;51.480;5.706;2023-03-23T07:14:58;12.20;99.90
42715;DHT22;28351;51.480;5.706;2023-03-23T07:17:24;12.00;99.90
42715;DHT22;28351;51.480;5.706;2023-03-23T07:19:51;11.90;99.90
42715;DHT22;28351;51.480;5.706;2023-03-23T07:22:16;11.90;99.90
42715;DHT22;28351;51.480;5.706;2023-03-23T07:24:42;11.80;99.90
42715;DHT22;28351;51.480;5.706;2023-03-23T07:27:08;11.80;99.90
42715;DHT22;28351;51.480;5.706;2023-03-23T07:29:35;11.80;99.90
42715;DHT22;28351;51.480;5.706;2023-03-23T07:32:04;11.80;99.90
42715;DHT22;28351;51.480;5.706;2023-03-23T07:34:30;11.90;99.90
42715;DHT22;28351;51.480;5.706;2023-03-23T07:36:57;11.90;99.90
42715;DHT22;28351;51.480;5.706;2023-03-23T07:39:22;12.00;99.90
42715;DHT22;28351;51.480;5.706;2023-03-23T07:41:49;12.00;99.90
42715;DHT22;28351;51.480;5.706;2023-03-23T07:44:15;12.00;99.90
42715;DHT22;28351;51.480;5.706;2023-03-23T07:46:41;11.90;99.90
42715;DHT22;28351;51.480;5.706;2023-03-23T07:49:07;11.90;99.90
42715;DHT22;28351;51.480;5.706;2023-03-23T07:51:34;11.80;99.90
42715;DHT22;28351;51.480;5.706;2023-03-23T07:54:00;11.80;99.90
42715;DHT22;28351;51.480;5.706;2023-03-23T07:56:28;11.60;99.90
42715;DHT22;28351;51.480;5.706;2023-03-23T07:58:54;11.60;99.90
42715;DHT22;28351;51.480;5.706;2023-03-23T08:01:20;11.50;99.90
42715;DHT22;28351;51.480;5.706;2023-03-23T08:04:11;11.30;99.90
42715;DHT22;28351;51.480;5.706;2023-03-23T08:06:41;10.70;99.90
42715;DHT22;28351;51.480;5.706;2023-03-23T08:09:08;10.30;99.90
42715;DHT22;28351;51.480;5.706;2023-03-23T08:11:35;10.10;99.90
42715;DHT22;28351;51.480;5.706;2023-03-23T08:14:01;9.90;99.90
42715;DHT22;28351;51.480;5.706;2023-03-23T08:16:28;9.80;99.90
42715;DHT22;28351;51.480;5.706;2023-03-23T08:18:53;9.80;99.90
42715;DHT22;28351;51.480;5.706;2023-03-23T08:21:19;9.80;99.90
42715;DHT22;28351;51.480;5.706;2023-03-23T08:23:46;9.90;99.90
42715;DHT22;28351;51.480;5.706;2023-03-23T08:26:11;10.00;99.90
42715;DHT22;28351;51.480;5.706;2023-03-23T08:28:38;10.00;99.90
42715;DHT22;28351;51.480;5.706;2023-03-23T08:31:11;10.10;99.90
42715;DHT22;28351;51.480;5.706;2023-03-23T08:33:38;10.10;99.90
42715;DHT22;28351;51.480;5.706;2023-03-23T08:36:04;10.20;99.90
42715;DHT22;28351;51.480;5.706;2023-03-23T08:38:30;10.30;99.90
42715;DHT22;28351;51.480;5.706;2023-03-23T08:41:04;10.40;99.90
42715;DHT22;28351;51.480;5.706;2023-03-23T08:43:31;10.50;99.90
42715;DHT22;28351;51.480;5.706;2023-03-23T08:45:58;10.50;99.90
42715;DHT22;28351;51.480;5.706;2023-03-23T08:48:24;10.50;99.90
42715;DHT22;28351;51.480;5.706;2023-03-23T08:50:49;10.50;99.90
42715;DHT22;28351;51.480;5.706;2023-03-23T08:53:17;10.50;99.90
42715;DHT22;28351;51.480;5.706;2023-03-23T08:55:44;10.50;99.90
42715;DHT22;28351;51.480;5.706;2023-03-23T08:58:09;10.60;99.90
42715;DHT22;28351;51.480;5.706;2023-03-23T09:00:35;10.70;99.90
42715;DHT22;28351;51.480;5.706;2023-03-23T09:03:01;10.70;99.90
42715;DHT22;28351;51.480;5.706;2023-03-23T09:05:29;10.70;99.90
42715;DHT22;28351;51.480;5.706;2023-03-23T09:07:57;10.70;99.90
42715;DHT22;28351;51.480;5.706;2023-03-23T09:10:27;10.80;99.90
42715;DHT22;28351;51.480;5.706;2023-03-23T09:12:55;10.90;99.90
42715;DHT22;28351;51.480;5.706;2023-03-23T09:15:22;10.90;99.90
42715;DHT22;28351;51.480;5.706;2023-03-23T09:17:50;11.00;99.90
42715;DHT22;28351;51.480;5.706;2023-03-23T09:20:20;11.20;99.90
42715;DHT22;28351;51.480;5.706;2023-03-23T09:22:47;11.30;99.90
42715;DHT22;28351;51.480;5.706;2023-03-23T09:25:15;11.30;99.90
42715;DHT22;28351;51.480;5.706;2023-03-23T09:27:42;11.20;99.90
42715;DHT22;28351;51.480;5.706;2023-03-23T09:30:12;11.10;99.90
42715;DHT22;28351;51.480;5.706;2023-03-23T09:32:40;11.00;99.90
42715;DHT22;28351;51.480;5.706;2023-03-23T09:35:08;10.80;99.90
42715;DHT22;28351;51.480;5.706;2023-03-23T09:37:35;10.70;99.90
42715;DHT22;28351;51.480;5.706;2023-03-23T09:40:06;10.60;99.90
42715;DHT22;28351;51.480;5.706;2023-03-23T09:43:01;10.60;99.90
42715;DHT22;28351;51.480;5.706;2023-03-23T09:51:21;10.50;99.90
42715;DHT22;28351;51.480;5.706;2023-03-23T09:53:51;10.60;99.90
42715;DHT22;28351;51.480;5.706;2023-03-23T09:56:19;10.70;99.90
42715;DHT22;28351;51.480;5.706;2023-03-23T09:59:12;10.80;99.90
42715;DHT22;28351;51.480;5.706;2023-03-23T10:01:43;11.10;99.90
42715;DHT22;28351;51.480;5.706;2023-03-23T10:05:07;11.50;99.90
42715;DHT22;28351;51.480;5.706;2023-03-23T10:07:20;11.80;99.90
42715;DHT22;28351;51.480;5.706;2023-03-23T10:09:51;12.00;99.90
42715;DHT22;28351;51.480;5.706;2023-03-23T10:12:38;12.10;99.90
42715;DHT22;28351;51.480;5.706;2023-03-23T10:15:20;12.20;99.90
42715;DHT22;28351;51.480;5.706;2023-03-23T10:35:00;13.30;99.90
42715;DHT22;28351;51.480;5.706;2023-03-23T10:37:44;13.10;99.90
42715;DHT22;28351;51.480;5.706;2023-03-23T10:40:21;13.00;99.90
42715;DHT22;28351;51.480;5.706;2023-03-23T10:43:17;12.90;99.90
42715;DHT22;28351;51.480;5.706;2023-03-23T10:46:59;12.70;99.90
42715;DHT22;28351;51.480;5.706;2023-03-23T10:55:21;13.70;99.90
42715;DHT22;28351;51.480;5.706;2023-03-23T11:01:11;14.00;99.90
42715;DHT22;28351;51.480;5.706;2023-03-23T11:04:02;14.00;99.90
42715;DHT22;28351;51.480;5.706;2023-03-23T11:10:25;14.30;99.90
42715;DHT22;28351;51.480;5.706;2023-03-23T11:13:23;14.60;99.90
42715;DHT22;28351;51.480;5.706;2023-03-23T11:16:44;14.40;99.90
42715;DHT22;28351;51.480;5.706;2023-03-23T11:19:33;14.60;99.90
42715;DHT22;28351;51.480;5.706;2023-03-23T11:29:17;14.70;99.90
42715;DHT22;28351;51.480;5.706;2023-03-23T11:32:12;14.70;99.90
42715;DHT22;28351;51.480;5.706;2023-03-23T11:35:15;14.60;99.90
42715;DHT22;28351;51.480;5.706;2023-03-23T11:37:42;14.50;99.90
42715;DHT22;28351;51.480;5.706;2023-03-23T11:50:55;16.20;99.90
42715;DHT22;28351;51.480;5.706;2023-03-23T11:56:23;16.10;99.90
42715;DHT22;28351;51.480;5.706;2023-03-23T11:58:50;16.00;99.90
42715;DHT22;28351;51.480;5.706;2023-03-23T12:06:44;15.90;99.90
42715;DHT22;28351;51.480;5.706;2023-03-23T12:11:52;18.90;99.90
42715;DHT22;28351;51.480;5.706;2023-03-23T12:33:11;17.10;99.90
42715;DHT22;28351;51.480;5.706;2023-03-23T12:36:06;18.30;99.90
42715;DHT22;28351;51.480;5.706;2023-03-23T12:39:25;18.60;99.90
42715;DHT22;28351;51.480;5.706;2023-03-23T12:42:06;17.90;99.90
42715;DHT22;28351;51.480;5.706;2023-03-23T12:44:47;17.40;99.90
42715;DHT22;28351;51.480;5.706;2023-03-23T12:47:34;17.30;99.90
42715;DHT22;28351;51.480;5.706;2023-03-23T12:52:53;19.10;99.90
42715;DHT22;28351;51.480;5.706;2023-03-23T12:58:26;21.10;99.90
42715;DHT22;28351;51.480;5.706;2023-03-23T13:01:05;21.50;99.90
42715;DHT22;28351;51.480;5.706;2023-03-23T13:03:46;21.60;99.90
42715;DHT22;28351;51.480;5.706;2023-03-23T13:06:31;21.70;99.80
42715;DHT22;28351;51.480;5.706;2023-03-23T13:09:27;21.70;99.50
42715;DHT22;28351;51.480;5.706;2023-03-23T13:11:56;22.00;99.80
42715;DHT22;28351;51.480;5.706;2023-03-23T13:14:45;22.00;99.00
42715;DHT22;28351;51.480;5.706;2023-03-23T13:24:56;20.70;99.90
42715;DHT22;28351;51.480;5.706;2023-03-23T13:27:24;19.00;99.90
42715;DHT22;28351;51.480;5.706;2023-03-23T13:29:54;18.00;99.90
42715;DHT22;28351;51.480;5.706;2023-03-23T13:32:21;18.10;99.90
42715;DHT22;28351;51.480;5.706;2023-03-23T13:34:48;17.80;99.90
42715;DHT22;28351;51.480;5.706;2023-03-23T13:37:25;17.40;99.90
42715;DHT22;28351;51.480;5.706;2023-03-23T13:40:11;17.20;99.90
42715;DHT22;28351;51.480;5.706;2023-03-23T13:42:51;17.30;99.90
42715;DHT22;28351;51.480;5.706;2023-03-23T13:48:26;17.40;99.90
42715;DHT22;28351;51.480;5.706;2023-03-23T13:51:00;17.20;99.90
42715;DHT22;28351;51.480;5.706;2023-03-23T13:53:42;17.00;99.90
42715;DHT22;28351;51.480;5.706;2023-03-23T13:56:25;16.80;99.90
42715;DHT22;28351;51.480;5.706;2023-03-23T13:59:15;16.60;99.90
42715;DHT22;28351;51.480;5.706;2023-03-23T14:01:41;16.30;99.90
42715;DHT22;28351;51.480;5.706;2023-03-23T14:04:17;16.20;99.90
42715;DHT22;28351;51.480;5.706;2023-03-23T14:06:44;16.00;99.90
42715;DHT22;28351;51.480;5.706;2023-03-23T14:09:31;15.80;99.90
42715;DHT22;28351;51.480;5.706;2023-03-23T14:12:13;15.40;99.90
42715;DHT22;28351;51.480;5.706;2023-03-23T14:15:03;15.00;99.90
42715;DHT22;28351;51.480;5.706;2023-03-23T14:17:42;14.70;99.90
42715;DHT22;28351;51.480;5.706;2023-03-23T14:20:21;14.50;99.90
42715;DHT22;28351;51.480;5.706;2023-03-23T14:22:53;14.10;99.90
42715;DHT22;28351;51.480;5.706;2023-03-23T14:25:20;13.20;99.90
42715;DHT22;28351;51.480;5.706;2023-03-23T14:27:47;12.90;99.90
42715;DHT22;28351;51.480;5.706;2023-03-23T14:30:15;13.00;99.90
42715;DHT22;28351;51.480;5.706;2023-03-23T14:32:42;12.80;99.90
42715;DHT22;28351;51.480;5.706;2023-03-23T14:35:19;13.40;99.90
42715;DHT22;28351;51.480;5.706;2023-03-23T14:37:47;13.80;99.90
42715;DHT22;28351;51.480;5.706;2023-03-23T14:40:15;14.70;99.90
42715;DHT22;28351;51.480;5.706;2023-03-23T14:42:42;15.40;99.90
42715;DHT22;28351;51.480;5.706;2023-03-23T14:45:13;15.20;99.90
42715;DHT22;28351;51.480;5.706;2023-03-23T14:47:54;15.00;99.90
42715;DHT22;28351;51.480;5.706;2023-03-23T14:52:51;14.40;99.90
42715;DHT22;28351;51.480;5.706;2023-03-23T14:55:20;14.20;99.90
42715;DHT22;28351;51.480;5.706;2023-03-23T14:57:47;14.20;99.90
42715;DHT22;28351;51.480;5.706;2023-03-23T15:00:15;14.40;99.90
42715;DHT22;28351;51.480;5.706;2023-03-23T15:02:45;14.40;99.90
42715;DHT22;28351;51.480;5.706;2023-03-23T15:05:15;14.20;99.90
42715;DHT22;28351;51.480;5.706;2023-03-23T15:07:50;14.00;99.90
42715;DHT22;28351;51.480;5.706;2023-03-23T15:10:21;13.80;99.90
42715;DHT22;28351;51.480;5.706;2023-03-23T15:12:48;13.60;99.90
42715;DHT22;28351;51.480;5.706;2023-03-23T15:15:32;13.50;99.90
42715;DHT22;28351;51.480;5.706;2023-03-23T15:18:00;13.30;99.90
42715;DHT22;28351;51.480;5.706;2023-03-23T15:20:29;13.70;99.90
42715;DHT22;28351;51.480;5.706;2023-03-23T15:22:56;15.10;99.90
42715;DHT22;28351;51.480;5.706;2023-03-23T15:27:58;16.70;99.90
42715;DHT22;28351;51.480;5.706;2023-03-23T15:32:54;15.20;99.90
42715;DHT22;28351;51.480;5.706;2023-03-23T15:35:24;14.80;99.90
42715;DHT22;28351;51.480;5.706;2023-03-23T15:38:05;14.40;99.90
42715;DHT22;28351;51.480;5.706;2023-03-23T15:40:37;14.30;99.90
42715;DHT22;28351;51.480;5.706;2023-03-23T15:43:14;14.10;99.90
42715;DHT22;28351;51.480;5.706;2023-03-23T15:48:17;14.00;99.90
42715;DHT22;28351;51.480;5.706;2023-03-23T15:50:42;14.00;99.90
42715;DHT22;28351;51.480;5.706;2023-03-23T15:53:33;13.90;99.90
42715;DHT22;28351;51.480;5.706;2023-03-23T15:56:02;13.80;99.90
42715;DHT22;28351;51.480;5.706;2023-03-23T15:58:29;13.70;99.90
42715;DHT22;28351;51.480;5.706;2023-03-23T16:00:56;13.60;99.90
42715;DHT22;28351;51.480;5.706;2023-03-23T16:03:25;13.40;99.90
42715;DHT22;28351;51.480;5.706;2023-03-23T16:05:54;13.40;99.90
42715;DHT22;28351;51.480;5.706;2023-03-23T16:08:20;13.40;99.90
42715;DHT22;28351;51.480;5.706;2023-03-23T16:10:46;13.20;99.90
42715;DHT22;28351;51.480;5.706;2023-03-23T16:13:12;13.20;99.90
42715;DHT22;28351;51.480;5.706;2023-03-23T16:15:38;13.10;99.90
42715;DHT22;28351;51.480;5.706;2023-03-23T16:18:03;13.00;99.90
42715;DHT22;28351;51.480;5.706;2023-03-23T16:20:29;13.00;99.90
42715;DHT22;28351;51.480;5.706;2023-03-23T16:22:57;13.20;99.90
42715;DHT22;28351;51.480;5.706;2023-03-23T16:25:25;13.40;99.90
42715;DHT22;28351;51.480;5.706;2023-03-23T16:27:51;13.50;99.90
42715;DHT22;28351;51.480;5.706;2023-03-23T16:30:26;13.50;99.90
42715;DHT22;28351;51.480;5.706;2023-03-23T16:32:52;13.50;99.90
42715;DHT22;28351;51.480;5.706;2023-03-23T16:35:18;13.50;99.90
42715;DHT22;28351;51.480;5.706;2023-03-23T16:37:47;13.50;99.90
42715;DHT22;28351;51.480;5.706;2023-03-23T16:40:14;13.40;99.90
42715;DHT22;28351;51.480;5.706;2023-03-23T16:42:39;13.40;99.90
42715;DHT22;28351;51.480;5.706;2023-03-23T16:45:05;13.50;99.90
42715;DHT22;28351;51.480;5.706;2023-03-23T16:47:31;13.50;99.90
42715;DHT22;28351;51.480;5.706;2023-03-23T16:49:57;13.50;99.90
42715;DHT22;28351;51.480;5.706;2023-03-23T16:52:23;13.60;99.90
42715;DHT22;28351;51.480;5.706;2023-03-23T16:54:49;13.60;99.90
42715;DHT22;28351;51.480;5.706;2023-03-23T16:57:14;13.60;99.90
42715;DHT22;28351;51.480;5.706;2023-03-23T16:59:41;13.50;99.90
42715;DHT22;28351;51.480;5.706;2023-03-23T17:02:10;13.50;99.90
42715;DHT22;28351;51.480;5.706;2023-03-23T17:04:35;13.50;99.90
42715;DHT22;28351;51.480;5.706;2023-03-23T17:07:01;13.40;99.90
42715;DHT22;28351;51.480;5.706;2023-03-23T17:09:27;13.30;99.90
42715;DHT22;28351;51.480;5.706;2023-03-23T17:11:53;13.30;99.90
42715;DHT22;28351;51.480;5.706;2023-03-23T17:14:21;13.30;99.90
42715;DHT22;28351;51.480;5.706;2023-03-23T17:16:46;13.20;99.90
42715;DHT22;28351;51.480;5.706;2023-03-23T17:19:12;13.20;99.90
42715;DHT22;28351;51.480;5.706;2023-03-23T17:21:39;13.10;99.90
42715;DHT22;28351;51.480;5.706;2023-03-23T17:24:05;13.00;99.90
42715;DHT22;28351;51.480;5.706;2023-03-23T17:26:31;12.90;99.90
42715;DHT22;28351;51.480;5.706;2023-03-23T17:28:57;13.00;99.90
42715;DHT22;28351;51.480;5.706;2023-03-23T17:31:23;13.00;99.90
42715;DHT22;28351;51.480;5.706;2023-03-23T17:33:49;13.10;99.90
42715;DHT22;28351;51.480;5.706;2023-03-23T17:36:16;13.10;99.90
42715;DHT22;28351;51.480;5.706;2023-03-23T17:38:42;13.20;99.90
42715;DHT22;28351;51.480;5.706;2023-03-23T17:41:07;13.20;99.90
42715;DHT22;28351;51.480;5.706;2023-03-23T17:43:36;13.20;99.90
42715;DHT22;28351;51.480;5.706;2023-03-23T17:46:09;13.30;99.90
42715;DHT22;28351;51.480;5.706;2023-03-23T17:48:35;13.30;99.90
42715;DHT22;28351;51.480;5.706;2023-03-23T17:51:02;13.30;99.90
42715;DHT22;28351;51.480;5.706;2023-03-23T17:53:29;13.30;99.90
42715;DHT22;28351;51.480;5.706;2023-03-23T17:55:56;13.30;99.90
42715;DHT22;28351;51.480;5.706;2023-03-23T17:58:22;13.30;99.90